sensor_id;sensor_type;location;lat;lon;timestamp;P1;durP1;ratioP1;P2;durP2;ratioP2
43552;SDS011;29153;42.696;23.218;2023-12-07T00:02:27;44.08;;;18.82;;
43552;SDS011;29153;42.696;23.218;2023-12-07T00:04:55;43.80;;;16.45;;
43552;SDS011;29153;42.696;23.218;2023-12-07T00:07:22;44.55;;;16.27;;
43552;SDS011;29153;42.696;23.218;2023-12-07T00:09:50;43.58;;;17.57;;
43552;SDS011;29153;42.696;23.218;2023-12-07T00:12:17;41.58;;;16.02;;
43552;SDS011;29153;42.696;23.218;2023-12-07T00:14:45;42.83;;;16.12;;
43552;SDS011;29153;42.696;23.218;2023-12-07T00:17:13;41.55;;;17.35;;
43552;SDS011;29153;42.696;23.218;2023-12-07T00:19:40;41.13;;;18.15;;
43552;SDS011;29153;42.696;23.218;2023-12-07T00:22:08;41.28;;;16.57;;
43552;SDS011;29153;42.696;23.218;2023-12-07T00:24:36;36.28;;;14.58;;
43552;SDS011;29153;42.696;23.218;2023-12-07T00:27:03;39.05;;;17.23;;
43552;SDS011;29153;42.696;23.218;2023-12-07T00:29:31;38.70;;;16.40;;
43552;SDS011;29153;42.696;23.218;2023-12-07T00:31:58;40.40;;;15.15;;
43552;SDS011;29153;42.696;23.218;2023-12-07T00:34:27;40.98;;;16.95;;
43552;SDS011;29153;42.696;23.218;2023-12-07T00:36:54;39.13;;;15.15;;
43552;SDS011;29153;42.696;23.218;2023-12-07T00:39:22;44.95;;;15.35;;
43552;SDS011;29153;42.696;23.218;2023-12-07T00:41:49;38.10;;;14.93;;
43552;SDS011;29153;42.696;23.218;2023-12-07T00:44:18;42.40;;;15.28;;
43552;SDS011;29153;42.696;23.218;2023-12-07T00:46:45;43.20;;;16.20;;
43552;SDS011;29153;42.696;23.218;2023-12-07T00:49:13;46.75;;;16.55;;
43552;SDS011;29153;42.696;23.218;2023-12-07T00:51:41;43.45;;;15.98;;
43552;SDS011;29153;42.696;23.218;2023-12-07T00:54:08;40.85;;;17.10;;
43552;SDS011;29153;42.696;23.218;2023-12-07T00:56:36;40.90;;;15.40;;
43552;SDS011;29153;42.696;23.218;2023-12-07T00:59:04;39.30;;;13.58;;
43552;SDS011;29153;42.696;23.218;2023-12-07T01:01:31;41.50;;;15.50;;
43552;SDS011;29153;42.696;23.218;2023-12-07T01:03:59;39.65;;;15.90;;
43552;SDS011;29153;42.696;23.218;2023-12-07T01:06:27;38.02;;;15.35;;
43552;SDS011;29153;42.696;23.218;2023-12-07T01:08:55;48.28;;;17.32;;
43552;SDS011;29153;42.696;23.218;2023-12-07T01:11:22;40.28;;;15.10;;
43552;SDS011;29153;42.696;23.218;2023-12-07T01:13:50;40.83;;;14.68;;
43552;SDS011;29153;42.696;23.218;2023-12-07T01:16:17;39.55;;;15.72;;
43552;SDS011;29153;42.696;23.218;2023-12-07T01:18:45;39.75;;;14.28;;
43552;SDS011;29153;42.696;23.218;2023-12-07T01:21:13;36.08;;;14.55;;
43552;SDS011;29153;42.696;23.218;2023-12-07T01:23:40;35.03;;;14.85;;
43552;SDS011;29153;42.696;23.218;2023-12-07T01:26:08;38.25;;;14.13;;
43552;SDS011;29153;42.696;23.218;2023-12-07T01:28:35;30.05;;;12.07;;
43552;SDS011;29153;42.696;23.218;2023-12-07T01:31:04;32.63;;;12.35;;
43552;SDS011;29153;42.696;23.218;2023-12-07T01:33:32;37.13;;;13.45;;
43552;SDS011;29153;42.696;23.218;2023-12-07T01:35:59;34.60;;;15.35;;
43552;SDS011;29153;42.696;23.218;2023-12-07T01:38:27;30.48;;;12.98;;
43552;SDS011;29153;42.696;23.218;2023-12-07T01:40:54;34.88;;;13.53;;
43552;SDS011;29153;42.696;23.218;2023-12-07T01:43:22;34.75;;;15.95;;
43552;SDS011;29153;42.696;23.218;2023-12-07T01:45:50;34.65;;;14.55;;
43552;SDS011;29153;42.696;23.218;2023-12-07T01:48:20;35.83;;;14.38;;
43552;SDS011;29153;42.696;23.218;2023-12-07T01:50:50;34.55;;;13.65;;
43552;SDS011;29153;42.696;23.218;2023-12-07T01:53:20;36.38;;;13.68;;
43552;SDS011;29153;42.696;23.218;2023-12-07T01:55:50;31.10;;;12.53;;
43552;SDS011;29153;42.696;23.218;2023-12-07T01:58:19;33.02;;;12.25;;
43552;SDS011;29153;42.696;23.218;2023-12-07T02:00:47;33.60;;;14.13;;
43552;SDS011;29153;42.696;23.218;2023-12-07T02:03:15;32.23;;;12.73;;
43552;SDS011;29153;42.696;23.218;2023-12-07T02:05:46;30.55;;;11.12;;
43552;SDS011;29153;42.696;23.218;2023-12-07T02:08:14;28.20;;;12.18;;
43552;SDS011;29153;42.696;23.218;2023-12-07T02:10:42;33.28;;;13.30;;
43552;SDS011;29153;42.696;23.218;2023-12-07T02:13:09;30.12;;;11.63;;
43552;SDS011;29153;42.696;23.218;2023-12-07T02:15:37;32.00;;;13.00;;
43552;SDS011;29153;42.696;23.218;2023-12-07T02:18:14;34.80;;;14.20;;
43552;SDS011;29153;42.696;23.218;2023-12-07T02:20:55;29.95;;;12.68;;
43552;SDS011;29153;42.696;23.218;2023-12-07T02:23:27;32.35;;;12.90;;
43552;SDS011;29153;42.696;23.218;2023-12-07T02:28:47;28.95;;;11.35;;
43552;SDS011;29153;42.696;23.218;2023-12-07T02:31:15;28.62;;;12.95;;
43552;SDS011;29153;42.696;23.218;2023-12-07T02:33:43;27.77;;;12.95;;
43552;SDS011;29153;42.696;23.218;2023-12-07T02:36:10;28.10;;;11.73;;
43552;SDS011;29153;42.696;23.218;2023-12-07T02:38:42;30.35;;;12.60;;
43552;SDS011;29153;42.696;23.218;2023-12-07T02:41:13;27.02;;;12.40;;
43552;SDS011;29153;42.696;23.218;2023-12-07T02:43:42;28.27;;;12.58;;
43552;SDS011;29153;42.696;23.218;2023-12-07T02:46:10;28.50;;;12.70;;
43552;SDS011;29153;42.696;23.218;2023-12-07T02:48:37;25.20;;;12.07;;
43552;SDS011;29153;42.696;23.218;2023-12-07T02:51:05;26.97;;;12.05;;
43552;SDS011;29153;42.696;23.218;2023-12-07T02:53:33;25.37;;;12.90;;
43552;SDS011;29153;42.696;23.218;2023-12-07T02:56:01;32.00;;;12.90;;
43552;SDS011;29153;42.696;23.218;2023-12-07T02:58:29;26.45;;;14.00;;
43552;SDS011;29153;42.696;23.218;2023-12-07T03:00:57;29.63;;;13.45;;
43552;SDS011;29153;42.696;23.218;2023-12-07T03:03:24;30.12;;;12.40;;
43552;SDS011;29153;42.696;23.218;2023-12-07T03:05:52;26.75;;;12.20;;
43552;SDS011;29153;42.696;23.218;2023-12-07T03:08:20;23.32;;;9.70;;
43552;SDS011;29153;42.696;23.218;2023-12-07T03:10:47;23.35;;;11.38;;
43552;SDS011;29153;42.696;23.218;2023-12-07T03:13:15;27.67;;;12.60;;
43552;SDS011;29153;42.696;23.218;2023-12-07T03:15:43;24.82;;;11.00;;
43552;SDS011;29153;42.696;23.218;2023-12-07T03:18:10;24.20;;;11.00;;
43552;SDS011;29153;42.696;23.218;2023-12-07T03:20:38;24.05;;;11.57;;
43552;SDS011;29153;42.696;23.218;2023-12-07T03:23:07;25.70;;;9.20;;
43552;SDS011;29153;42.696;23.218;2023-12-07T03:25:34;22.48;;;9.93;;
43552;SDS011;29153;42.696;23.218;2023-12-07T03:28:02;23.10;;;10.18;;
43552;SDS011;29153;42.696;23.218;2023-12-07T03:30:30;20.65;;;9.18;;
43552;SDS011;29153;42.696;23.218;2023-12-07T03:32:57;19.75;;;8.53;;
43552;SDS011;29153;42.696;23.218;2023-12-07T03:35:25;20.32;;;9.13;;
43552;SDS011;29153;42.696;23.218;2023-12-07T03:37:53;21.12;;;10.75;;
43552;SDS011;29153;42.696;23.218;2023-12-07T03:40:20;22.98;;;10.55;;
43552;SDS011;29153;42.696;23.218;2023-12-07T03:42:48;22.85;;;9.20;;
43552;SDS011;29153;42.696;23.218;2023-12-07T03:45:16;21.55;;;9.58;;
43552;SDS011;29153;42.696;23.218;2023-12-07T03:47:43;21.82;;;9.85;;
43552;SDS011;29153;42.696;23.218;2023-12-07T03:50:11;23.90;;;11.97;;
43552;SDS011;29153;42.696;23.218;2023-12-07T03:52:38;25.12;;;11.08;;
43552;SDS011;29153;42.696;23.218;2023-12-07T03:55:06;27.35;;;13.53;;
43552;SDS011;29153;42.696;23.218;2023-12-07T03:57:36;25.70;;;11.57;;
43552;SDS011;29153;42.696;23.218;2023-12-07T04:00:04;26.10;;;10.98;;
43552;SDS011;29153;42.696;23.218;2023-12-07T04:02:34;27.35;;;11.03;;
43552;SDS011;29153;42.696;23.218;2023-12-07T04:05:01;27.02;;;11.75;;
43552;SDS011;29153;42.696;23.218;2023-12-07T04:07:29;31.27;;;13.48;;
43552;SDS011;29153;42.696;23.218;2023-12-07T04:09:57;34.27;;;15.55;;
43552;SDS011;29153;42.696;23.218;2023-12-07T04:12:24;26.35;;;12.13;;
43552;SDS011;29153;42.696;23.218;2023-12-07T04:14:52;29.52;;;14.23;;
43552;SDS011;29153;42.696;23.218;2023-12-07T04:17:20;26.75;;;12.30;;
43552;SDS011;29153;42.696;23.218;2023-12-07T04:19:47;23.87;;;11.63;;
43552;SDS011;29153;42.696;23.218;2023-12-07T04:22:15;23.83;;;11.03;;
43552;SDS011;29153;42.696;23.218;2023-12-07T04:24:42;25.50;;;11.75;;
43552;SDS011;29153;42.696;23.218;2023-12-07T04:27:10;24.95;;;12.03;;
43552;SDS011;29153;42.696;23.218;2023-12-07T04:29:38;25.10;;;11.10;;
43552;SDS011;29153;42.696;23.218;2023-12-07T04:32:06;19.75;;;9.35;;
43552;SDS011;29153;42.696;23.218;2023-12-07T04:34:34;23.35;;;10.75;;
43552;SDS011;29153;42.696;23.218;2023-12-07T04:37:01;21.15;;;9.73;;
43552;SDS011;29153;42.696;23.218;2023-12-07T04:39:29;25.62;;;10.85;;
43552;SDS011;29153;42.696;23.218;2023-12-07T04:41:57;20.17;;;10.35;;
43552;SDS011;29153;42.696;23.218;2023-12-07T04:44:24;25.80;;;11.15;;
43552;SDS011;29153;42.696;23.218;2023-12-07T04:46:52;23.52;;;10.95;;
43552;SDS011;29153;42.696;23.218;2023-12-07T04:49:20;22.65;;;11.45;;
43552;SDS011;29153;42.696;23.218;2023-12-07T04:51:48;23.57;;;11.83;;
43552;SDS011;29153;42.696;23.218;2023-12-07T04:54:15;25.12;;;11.95;;
43552;SDS011;29153;42.696;23.218;2023-12-07T04:59:11;25.50;;;11.75;;
43552;SDS011;29153;42.696;23.218;2023-12-07T05:01:38;22.22;;;11.53;;
43552;SDS011;29153;42.696;23.218;2023-12-07T05:04:06;23.52;;;12.58;;
43552;SDS011;29153;42.696;23.218;2023-12-07T05:06:34;23.30;;;10.40;;
43552;SDS011;29153;42.696;23.218;2023-12-07T05:09:02;21.05;;;11.78;;
43552;SDS011;29153;42.696;23.218;2023-12-07T05:11:29;22.87;;;12.20;;
43552;SDS011;29153;42.696;23.218;2023-12-07T05:13:57;22.73;;;10.82;;
43552;SDS011;29153;42.696;23.218;2023-12-07T05:16:25;25.48;;;11.83;;
43552;SDS011;29153;42.696;23.218;2023-12-07T05:18:52;23.12;;;10.23;;
43552;SDS011;29153;42.696;23.218;2023-12-07T05:21:20;22.52;;;11.73;;
43552;SDS011;29153;42.696;23.218;2023-12-07T05:23:47;24.00;;;12.20;;
43552;SDS011;29153;42.696;23.218;2023-12-07T05:26:15;21.90;;;11.35;;
43552;SDS011;29153;42.696;23.218;2023-12-07T05:28:43;23.62;;;11.97;;
43552;SDS011;29153;42.696;23.218;2023-12-07T05:31:20;19.62;;;10.00;;
43552;SDS011;29153;42.696;23.218;2023-12-07T05:33:43;24.37;;;11.65;;
43552;SDS011;29153;42.696;23.218;2023-12-07T05:36:11;24.87;;;11.50;;
43552;SDS011;29153;42.696;23.218;2023-12-07T05:38:39;19.73;;;9.85;;
43552;SDS011;29153;42.696;23.218;2023-12-07T05:41:06;22.50;;;11.35;;
43552;SDS011;29153;42.696;23.218;2023-12-07T05:43:35;21.82;;;11.35;;
43552;SDS011;29153;42.696;23.218;2023-12-07T05:46:02;19.25;;;10.08;;
43552;SDS011;29153;42.696;23.218;2023-12-07T05:48:30;20.77;;;9.85;;
43552;SDS011;29153;42.696;23.218;2023-12-07T05:50:58;21.87;;;10.53;;
43552;SDS011;29153;42.696;23.218;2023-12-07T05:53:25;18.42;;;8.73;;
43552;SDS011;29153;42.696;23.218;2023-12-07T05:55:54;19.75;;;8.25;;
43552;SDS011;29153;42.696;23.218;2023-12-07T05:58:21;21.85;;;8.95;;
43552;SDS011;29153;42.696;23.218;2023-12-07T06:00:49;20.90;;;9.83;;
43552;SDS011;29153;42.696;23.218;2023-12-07T06:03:16;19.92;;;9.85;;
43552;SDS011;29153;42.696;23.218;2023-12-07T06:05:44;19.87;;;9.55;;
43552;SDS011;29153;42.696;23.218;2023-12-07T06:08:12;17.70;;;8.65;;
43552;SDS011;29153;42.696;23.218;2023-12-07T06:10:39;18.50;;;9.30;;
43552;SDS011;29153;42.696;23.218;2023-12-07T06:13:07;19.87;;;9.48;;
43552;SDS011;29153;42.696;23.218;2023-12-07T06:15:36;20.77;;;8.78;;
43552;SDS011;29153;42.696;23.218;2023-12-07T06:18:03;18.67;;;10.05;;
43552;SDS011;29153;42.696;23.218;2023-12-07T06:20:31;24.02;;;10.08;;
43552;SDS011;29153;42.696;23.218;2023-12-07T06:23:00;19.48;;;9.95;;
43552;SDS011;29153;42.696;23.218;2023-12-07T06:25:28;21.05;;;10.28;;
43552;SDS011;29153;42.696;23.218;2023-12-07T06:27:56;22.65;;;9.85;;
43552;SDS011;29153;42.696;23.218;2023-12-07T06:30:23;21.48;;;9.90;;
43552;SDS011;29153;42.696;23.218;2023-12-07T06:32:51;23.47;;;10.72;;
43552;SDS011;29153;42.696;23.218;2023-12-07T06:35:19;23.18;;;11.73;;
43552;SDS011;29153;42.696;23.218;2023-12-07T06:37:47;23.57;;;12.23;;
43552;SDS011;29153;42.696;23.218;2023-12-07T06:40:14;23.80;;;12.20;;
43552;SDS011;29153;42.696;23.218;2023-12-07T06:42:43;24.95;;;13.22;;
43552;SDS011;29153;42.696;23.218;2023-12-07T06:45:10;22.95;;;11.95;;
43552;SDS011;29153;42.696;23.218;2023-12-07T06:47:40;22.32;;;12.37;;
43552;SDS011;29153;42.696;23.218;2023-12-07T06:50:11;22.48;;;10.43;;
43552;SDS011;29153;42.696;23.218;2023-12-07T06:52:39;27.17;;;12.05;;
43552;SDS011;29153;42.696;23.218;2023-12-07T06:55:06;29.85;;;15.63;;
43552;SDS011;29153;42.696;23.218;2023-12-07T06:57:38;28.55;;;14.35;;
43552;SDS011;29153;42.696;23.218;2023-12-07T07:00:06;22.48;;;11.97;;
43552;SDS011;29153;42.696;23.218;2023-12-07T07:02:36;22.73;;;12.40;;
43552;SDS011;29153;42.696;23.218;2023-12-07T07:05:05;24.30;;;12.53;;
43552;SDS011;29153;42.696;23.218;2023-12-07T07:07:33;22.20;;;10.68;;
43552;SDS011;29153;42.696;23.218;2023-12-07T07:10:00;21.02;;;10.40;;
43552;SDS011;29153;42.696;23.218;2023-12-07T07:12:28;17.30;;;8.40;;
43552;SDS011;29153;42.696;23.218;2023-12-07T07:14:56;17.50;;;9.08;;
43552;SDS011;29153;42.696;23.218;2023-12-07T07:17:23;16.73;;;8.18;;
43552;SDS011;29153;42.696;23.218;2023-12-07T07:19:52;16.32;;;7.70;;
43552;SDS011;29153;42.696;23.218;2023-12-07T07:22:21;18.75;;;9.23;;
43552;SDS011;29153;42.696;23.218;2023-12-07T07:24:48;17.20;;;8.33;;
43552;SDS011;29153;42.696;23.218;2023-12-07T07:27:16;15.30;;;7.15;;
43552;SDS011;29153;42.696;23.218;2023-12-07T07:29:44;16.80;;;8.33;;
43552;SDS011;29153;42.696;23.218;2023-12-07T07:32:11;23.47;;;11.35;;
43552;SDS011;29153;42.696;23.218;2023-12-07T07:34:39;23.95;;;9.40;;
43552;SDS011;29153;42.696;23.218;2023-12-07T07:37:07;21.02;;;9.85;;
43552;SDS011;29153;42.696;23.218;2023-12-07T07:39:34;16.82;;;8.45;;
43552;SDS011;29153;42.696;23.218;2023-12-07T07:42:02;21.37;;;9.83;;
43552;SDS011;29153;42.696;23.218;2023-12-07T07:44:30;16.50;;;7.33;;
43552;SDS011;29153;42.696;23.218;2023-12-07T07:46:58;10.35;;;5.72;;
43552;SDS011;29153;42.696;23.218;2023-12-07T07:49:25;11.25;;;4.72;;
43552;SDS011;29153;42.696;23.218;2023-12-07T07:51:53;8.90;;;4.22;;
43552;SDS011;29153;42.696;23.218;2023-12-07T07:54:20;11.53;;;4.12;;
43552;SDS011;29153;42.696;23.218;2023-12-07T07:56:48;7.60;;;4.12;;
43552;SDS011;29153;42.696;23.218;2023-12-07T07:59:16;7.22;;;4.22;;
43552;SDS011;29153;42.696;23.218;2023-12-07T08:01:43;7.47;;;4.20;;
43552;SDS011;29153;42.696;23.218;2023-12-07T08:04:15;8.08;;;3.92;;
43552;SDS011;29153;42.696;23.218;2023-12-07T08:06:44;7.47;;;3.50;;
43552;SDS011;29153;42.696;23.218;2023-12-07T08:09:11;5.50;;;2.87;;
43552;SDS011;29153;42.696;23.218;2023-12-07T08:11:39;5.90;;;3.00;;
43552;SDS011;29153;42.696;23.218;2023-12-07T08:14:06;6.58;;;3.77;;
43552;SDS011;29153;42.696;23.218;2023-12-07T08:16:34;7.95;;;3.90;;
43552;SDS011;29153;42.696;23.218;2023-12-07T08:19:02;6.47;;;4.28;;
43552;SDS011;29153;42.696;23.218;2023-12-07T08:21:29;7.37;;;3.20;;
43552;SDS011;29153;42.696;23.218;2023-12-07T08:23:57;6.90;;;3.50;;
43552;SDS011;29153;42.696;23.218;2023-12-07T08:26:25;6.92;;;3.35;;
43552;SDS011;29153;42.696;23.218;2023-12-07T08:28:53;6.05;;;3.58;;
43552;SDS011;29153;42.696;23.218;2023-12-07T08:31:22;5.10;;;3.40;;
43552;SDS011;29153;42.696;23.218;2023-12-07T08:33:55;10.05;;;5.28;;
43552;SDS011;29153;42.696;23.218;2023-12-07T08:36:18;5.67;;;3.40;;
43552;SDS011;29153;42.696;23.218;2023-12-07T08:38:46;4.85;;;2.72;;
43552;SDS011;29153;42.696;23.218;2023-12-07T08:41:14;4.20;;;2.70;;
43552;SDS011;29153;42.696;23.218;2023-12-07T08:43:41;9.08;;;4.25;;
43552;SDS011;29153;42.696;23.218;2023-12-07T08:46:09;18.37;;;9.35;;
43552;SDS011;29153;42.696;23.218;2023-12-07T08:48:37;23.98;;;10.68;;
43552;SDS011;29153;42.696;23.218;2023-12-07T08:51:04;12.10;;;6.28;;
43552;SDS011;29153;42.696;23.218;2023-12-07T08:53:34;5.85;;;3.80;;
43552;SDS011;29153;42.696;23.218;2023-12-07T08:56:02;4.70;;;3.35;;
43552;SDS011;29153;42.696;23.218;2023-12-07T08:58:30;5.85;;;3.60;;
43552;SDS011;29153;42.696;23.218;2023-12-07T09:00:59;5.08;;;3.60;;
43552;SDS011;29153;42.696;23.218;2023-12-07T09:03:26;4.17;;;2.25;;
43552;SDS011;29153;42.696;23.218;2023-12-07T09:05:56;4.37;;;2.90;;
43552;SDS011;29153;42.696;23.218;2023-12-07T09:08:23;4.25;;;1.92;;
43552;SDS011;29153;42.696;23.218;2023-12-07T09:10:51;19.30;;;3.42;;
43552;SDS011;29153;42.696;23.218;2023-12-07T09:13:18;10.00;;;2.87;;
43552;SDS011;29153;42.696;23.218;2023-12-07T09:15:46;17.82;;;5.12;;
43552;SDS011;29153;42.696;23.218;2023-12-07T09:18:14;12.53;;;2.42;;
43552;SDS011;29153;42.696;23.218;2023-12-07T09:20:41;10.45;;;2.83;;
43552;SDS011;29153;42.696;23.218;2023-12-07T09:23:12;8.83;;;2.45;;
43552;SDS011;29153;42.696;23.218;2023-12-07T09:25:43;2.90;;;1.60;;
43552;SDS011;29153;42.696;23.218;2023-12-07T09:28:10;9.30;;;1.80;;
43552;SDS011;29153;42.696;23.218;2023-12-07T09:30:38;2.22;;;1.40;;
43552;SDS011;29153;42.696;23.218;2023-12-07T09:33:06;5.95;;;1.65;;
43552;SDS011;29153;42.696;23.218;2023-12-07T09:35:33;10.60;;;1.45;;
43552;SDS011;29153;42.696;23.218;2023-12-07T09:38:01;14.00;;;2.12;;
43552;SDS011;29153;42.696;23.218;2023-12-07T09:40:29;6.15;;;2.45;;
43552;SDS011;29153;42.696;23.218;2023-12-07T09:42:57;3.08;;;1.90;;
43552;SDS011;29153;42.696;23.218;2023-12-07T09:45:25;5.60;;;1.22;;
43552;SDS011;29153;42.696;23.218;2023-12-07T09:47:53;2.30;;;1.40;;
43552;SDS011;29153;42.696;23.218;2023-12-07T09:50:22;3.98;;;1.07;;
43552;SDS011;29153;42.696;23.218;2023-12-07T09:52:52;4.47;;;1.77;;
43552;SDS011;29153;42.696;23.218;2023-12-07T09:55:22;3.10;;;1.52;;
43552;SDS011;29153;42.696;23.218;2023-12-07T09:57:53;1.90;;;0.93;;
43552;SDS011;29153;42.696;23.218;2023-12-07T10:00:23;2.40;;;1.05;;
43552;SDS011;29153;42.696;23.218;2023-12-07T10:02:51;4.05;;;1.40;;
43552;SDS011;29153;42.696;23.218;2023-12-07T10:05:19;2.45;;;1.10;;
43552;SDS011;29153;42.696;23.218;2023-12-07T10:07:48;1.75;;;0.80;;
43552;SDS011;29153;42.696;23.218;2023-12-07T10:10:17;1.80;;;0.60;;
43552;SDS011;29153;42.696;23.218;2023-12-07T10:12:51;2.02;;;0.80;;
43552;SDS011;29153;42.696;23.218;2023-12-07T10:15:21;1.22;;;0.40;;
43552;SDS011;29153;42.696;23.218;2023-12-07T10:17:51;1.45;;;0.53;;
43552;SDS011;29153;42.696;23.218;2023-12-07T10:20:21;2.12;;;1.62;;
43552;SDS011;29153;42.696;23.218;2023-12-07T10:23:06;2.08;;;0.80;;
43552;SDS011;29153;42.696;23.218;2023-12-07T10:25:37;1.40;;;0.68;;
43552;SDS011;29153;42.696;23.218;2023-12-07T10:28:09;2.00;;;0.90;;
43552;SDS011;29153;42.696;23.218;2023-12-07T10:30:43;1.70;;;0.80;;
43552;SDS011;29153;42.696;23.218;2023-12-07T10:33:08;1.70;;;0.70;;
43552;SDS011;29153;42.696;23.218;2023-12-07T10:35:42;1.62;;;0.90;;
43552;SDS011;29153;42.696;23.218;2023-12-07T10:38:10;2.12;;;1.00;;
43552;SDS011;29153;42.696;23.218;2023-12-07T10:40:38;2.27;;;1.00;;
43552;SDS011;29153;42.696;23.218;2023-12-07T10:43:07;3.00;;;1.60;;
43552;SDS011;29153;42.696;23.218;2023-12-07T10:45:35;3.12;;;1.37;;
43552;SDS011;29153;42.696;23.218;2023-12-07T10:48:05;2.65;;;1.70;;
43552;SDS011;29153;42.696;23.218;2023-12-07T10:50:37;3.47;;;1.27;;
43552;SDS011;29153;42.696;23.218;2023-12-07T10:53:09;3.87;;;1.57;;
43552;SDS011;29153;42.696;23.218;2023-12-07T10:55:41;2.35;;;1.37;;
43552;SDS011;29153;42.696;23.218;2023-12-07T10:58:13;2.27;;;1.07;;
43552;SDS011;29153;42.696;23.218;2023-12-07T11:00:42;3.08;;;1.62;;
43552;SDS011;29153;42.696;23.218;2023-12-07T11:03:14;2.80;;;1.40;;
43552;SDS011;29153;42.696;23.218;2023-12-07T11:05:47;3.27;;;1.50;;
43552;SDS011;29153;42.696;23.218;2023-12-07T11:13:29;10.75;;;3.62;;
43552;SDS011;29153;42.696;23.218;2023-12-07T11:15:59;8.30;;;2.98;;
43552;SDS011;29153;42.696;23.218;2023-12-07T11:18:28;2.30;;;1.37;;
43552;SDS011;29153;42.696;23.218;2023-12-07T11:20:56;4.12;;;1.60;;
43552;SDS011;29153;42.696;23.218;2023-12-07T11:23:26;3.10;;;1.92;;
43552;SDS011;29153;42.696;23.218;2023-12-07T11:25:57;3.72;;;2.17;;
43552;SDS011;29153;42.696;23.218;2023-12-07T11:28:42;2.77;;;1.55;;
43552;SDS011;29153;42.696;23.218;2023-12-07T11:31:07;4.58;;;1.70;;
43552;SDS011;29153;42.696;23.218;2023-12-07T11:33:38;13.35;;;3.00;;
43552;SDS011;29153;42.696;23.218;2023-12-07T11:36:09;6.78;;;2.72;;
43552;SDS011;29153;42.696;23.218;2023-12-07T11:38:38;3.58;;;1.62;;
43552;SDS011;29153;42.696;23.218;2023-12-07T11:41:24;5.35;;;2.22;;
43552;SDS011;29153;42.696;23.218;2023-12-07T11:43:53;4.70;;;2.10;;
43552;SDS011;29153;42.696;23.218;2023-12-07T11:46:22;11.48;;;2.35;;
43552;SDS011;29153;42.696;23.218;2023-12-07T11:48:50;4.85;;;2.47;;
43552;SDS011;29153;42.696;23.218;2023-12-07T11:51:18;11.80;;;2.05;;
43552;SDS011;29153;42.696;23.218;2023-12-07T11:53:45;6.70;;;3.17;;
43552;SDS011;29153;42.696;23.218;2023-12-07T11:56:28;11.50;;;2.75;;
43552;SDS011;29153;42.696;23.218;2023-12-07T11:58:47;17.45;;;3.15;;
43552;SDS011;29153;42.696;23.218;2023-12-07T12:03:43;5.70;;;3.52;;
43552;SDS011;29153;42.696;23.218;2023-12-07T12:06:11;4.72;;;2.40;;
43552;SDS011;29153;42.696;23.218;2023-12-07T12:08:43;3.17;;;1.90;;
43552;SDS011;29153;42.696;23.218;2023-12-07T12:11:08;3.30;;;1.98;;
43552;SDS011;29153;42.696;23.218;2023-12-07T12:13:36;3.52;;;1.98;;
43552;SDS011;29153;42.696;23.218;2023-12-07T12:16:04;6.53;;;3.50;;
43552;SDS011;29153;42.696;23.218;2023-12-07T12:18:32;8.98;;;2.62;;
43552;SDS011;29153;42.696;23.218;2023-12-07T12:21:01;3.37;;;1.80;;
43552;SDS011;29153;42.696;23.218;2023-12-07T12:23:29;3.75;;;2.58;;
43552;SDS011;29153;42.696;23.218;2023-12-07T12:25:56;7.33;;;2.52;;
43552;SDS011;29153;42.696;23.218;2023-12-07T12:28:25;5.62;;;2.25;;
43552;SDS011;29153;42.696;23.218;2023-12-07T12:30:53;3.02;;;1.77;;
43552;SDS011;29153;42.696;23.218;2023-12-07T12:33:21;3.02;;;1.77;;
43552;SDS011;29153;42.696;23.218;2023-12-07T12:36:02;4.20;;;2.75;;
43552;SDS011;29153;42.696;23.218;2023-12-07T12:38:32;3.37;;;2.62;;
43552;SDS011;29153;42.696;23.218;2023-12-07T12:41:00;5.00;;;3.20;;
43552;SDS011;29153;42.696;23.218;2023-12-07T12:45:57;5.55;;;3.00;;
43552;SDS011;29153;42.696;23.218;2023-12-07T12:48:25;8.40;;;3.35;;
43552;SDS011;29153;42.696;23.218;2023-12-07T12:50:54;10.28;;;4.85;;
43552;SDS011;29153;42.696;23.218;2023-12-07T12:53:22;11.05;;;3.77;;
43552;SDS011;29153;42.696;23.218;2023-12-07T12:55:51;4.28;;;2.83;;
43552;SDS011;29153;42.696;23.218;2023-12-07T12:58:18;6.47;;;2.77;;
43552;SDS011;29153;42.696;23.218;2023-12-07T13:00:47;5.85;;;3.10;;
43552;SDS011;29153;42.696;23.218;2023-12-07T13:03:15;6.60;;;4.08;;
43552;SDS011;29153;42.696;23.218;2023-12-07T13:05:43;5.90;;;3.50;;
43552;SDS011;29153;42.696;23.218;2023-12-07T13:08:12;6.00;;;3.60;;
43552;SDS011;29153;42.696;23.218;2023-12-07T13:10:40;10.53;;;5.65;;
43552;SDS011;29153;42.696;23.218;2023-12-07T13:13:08;6.42;;;3.25;;
43552;SDS011;29153;42.696;23.218;2023-12-07T13:15:35;4.50;;;2.92;;
43552;SDS011;29153;42.696;23.218;2023-12-07T13:18:03;4.70;;;3.08;;
43552;SDS011;29153;42.696;23.218;2023-12-07T13:20:31;8.08;;;3.33;;
43552;SDS011;29153;42.696;23.218;2023-12-07T13:22:59;5.75;;;3.35;;
43552;SDS011;29153;42.696;23.218;2023-12-07T13:25:26;6.00;;;2.75;;
43552;SDS011;29153;42.696;23.218;2023-12-07T13:27:54;5.05;;;2.98;;
43552;SDS011;29153;42.696;23.218;2023-12-07T13:30:22;5.12;;;3.20;;
43552;SDS011;29153;42.696;23.218;2023-12-07T13:32:51;6.20;;;4.17;;
43552;SDS011;29153;42.696;23.218;2023-12-07T13:35:19;5.12;;;3.15;;
43552;SDS011;29153;42.696;23.218;2023-12-07T13:37:46;4.30;;;2.60;;
43552;SDS011;29153;42.696;23.218;2023-12-07T13:40:14;5.65;;;2.85;;
43552;SDS011;29153;42.696;23.218;2023-12-07T13:42:42;6.92;;;3.35;;
43552;SDS011;29153;42.696;23.218;2023-12-07T13:45:09;5.60;;;3.25;;
43552;SDS011;29153;42.696;23.218;2023-12-07T13:47:37;6.55;;;3.55;;
43552;SDS011;29153;42.696;23.218;2023-12-07T13:50:05;4.40;;;3.00;;
43552;SDS011;29153;42.696;23.218;2023-12-07T13:55:00;13.90;;;4.70;;
43552;SDS011;29153;42.696;23.218;2023-12-07T13:57:28;12.10;;;4.97;;
43552;SDS011;29153;42.696;23.218;2023-12-07T13:59:55;9.23;;;4.50;;
43552;SDS011;29153;42.696;23.218;2023-12-07T14:02:23;8.38;;;4.22;;
43552;SDS011;29153;42.696;23.218;2023-12-07T14:04:51;6.53;;;3.95;;
43552;SDS011;29153;42.696;23.218;2023-12-07T14:07:19;4.30;;;3.17;;
43552;SDS011;29153;42.696;23.218;2023-12-07T14:09:49;5.03;;;3.40;;
43552;SDS011;29153;42.696;23.218;2023-12-07T14:12:18;5.55;;;3.72;;
43552;SDS011;29153;42.696;23.218;2023-12-07T14:14:46;7.00;;;4.15;;
43552;SDS011;29153;42.696;23.218;2023-12-07T14:17:15;11.93;;;4.47;;
43552;SDS011;29153;42.696;23.218;2023-12-07T14:19:44;10.23;;;4.08;;
43552;SDS011;29153;42.696;23.218;2023-12-07T14:22:18;11.10;;;4.80;;
43552;SDS011;29153;42.696;23.218;2023-12-07T14:24:47;7.78;;;4.03;;
43552;SDS011;29153;42.696;23.218;2023-12-07T14:27:14;7.47;;;4.80;;
43552;SDS011;29153;42.696;23.218;2023-12-07T14:29:46;6.95;;;4.55;;
43552;SDS011;29153;42.696;23.218;2023-12-07T14:32:11;8.88;;;4.35;;
43552;SDS011;29153;42.696;23.218;2023-12-07T14:34:39;12.75;;;4.67;;
43552;SDS011;29153;42.696;23.218;2023-12-07T14:37:07;9.00;;;5.28;;
43552;SDS011;29153;42.696;23.218;2023-12-07T14:39:35;8.03;;;5.22;;
43552;SDS011;29153;42.696;23.218;2023-12-07T14:42:03;9.70;;;5.28;;
43552;SDS011;29153;42.696;23.218;2023-12-07T14:44:30;7.47;;;4.97;;
43552;SDS011;29153;42.696;23.218;2023-12-07T14:46:58;8.70;;;4.87;;